Time;durP1;ratioP1;P1;durP2;ratioP2;P2;SDS_P1;SDS_P2;PMS_P1;PMS_P2;Temp;Humidity;BMP_temperature;BMP_pressure;BME280_temperature;BME280_humidity;BME280_pressure;Samples;Min_cycle;Max_cycle;Signal;HPM_P1;HPM_P2
2022/03/30 00:00:43;;;;;;;27.60;12.82;;;8.00;99.90;;;;;;5041497;28;20093;-73
2022/03/30 00:03:09;;;;;;;23.13;12.38;;;7.90;99.90;;;;;;5057321;28;20044;-73
2022/03/30 00:05:35;;;;;;;23.02;13.18;;;7.90;99.90;;;;;;5074700;28;20126;-73
2022/03/30 00:08:00;;;;;;;25.95;14.65;;;8.00;99.90;;;;;;5025646;28;20048;-73
2022/03/30 00:10:26;;;;;;;26.08;13.73;;;8.10;99.90;;;;;;5062692;28;20513;-73
2022/03/30 00:12:52;;;;;;;25.60;15.20;;;8.10;99.90;;;;;;5057728;28;20056;-73
2022/03/30 00:15:18;;;;;;;23.85;14.00;;;8.20;99.90;;;;;;5036313;28;20105;-73
2022/03/30 00:17:44;;;;;;;29.02;15.70;;;8.30;99.90;;;;;;5059943;28;20118;-73
2022/03/30 00:20:10;;;;;;;29.60;15.38;;;8.30;99.90;;;;;;5053889;28;20111;-73
2022/03/30 00:22:38;;;;;;;26.83;15.57;;;8.30;99.90;;;;;;5042551;28;20045;-73
2022/03/30 00:25:05;;;;;;;22.73;15.98;;;8.40;99.90;;;;;;5050405;28;20051;-73
2022/03/30 00:27:31;;;;;;;27.80;14.50;;;8.50;99.90;;;;;;5043738;28;20102;-73
2022/03/30 00:29:57;;;;;;;32.05;16.05;;;8.60;99.90;;;;;;5047568;28;20304;-73
2022/03/30 00:32:23;;;;;;;25.27;15.38;;;8.60;99.90;;;;;;5025639;28;20111;-73
2022/03/30 00:34:48;;;;;;;27.38;15.48;;;8.50;99.90;;;;;;5041985;28;20537;-74
2022/03/30 00:37:14;;;;;;;34.45;15.48;;;8.60;99.90;;;;;;5025626;28;20044;-73
2022/03/30 00:39:40;;;;;;;27.67;13.98;;;8.70;99.90;;;;;;5055225;28;20373;-73
2022/03/30 00:42:15;;;;;;;33.55;15.20;;;8.70;99.90;;;;;;5058484;28;20054;-72
2022/03/30 00:44:41;;;;;;;32.15;15.52;;;8.70;99.90;;;;;;5048156;28;20139;-74
2022/03/30 00:47:14;;;;;;;30.25;15.63;;;8.70;99.90;;;;;;5065966;28;20349;-73
2022/03/30 00:49:41;;;;;;;28.13;15.05;;;8.90;99.90;;;;;;5050436;28;20068;-73
2022/03/30 00:52:07;;;;;;;27.48;14.43;;;8.90;99.90;;;;;;5066331;28;20033;-74
2022/03/30 00:54:34;;;;;;;35.38;15.85;;;9.00;99.90;;;;;;5028872;28;20189;-73
2022/03/30 00:57:00;;;;;;;28.25;14.18;;;9.10;99.90;;;;;;5071203;28;20272;-73
2022/03/30 00:59:26;;;;;;;26.75;14.25;;;9.20;99.90;;;;;;5072984;28;20209;-74
2022/03/30 01:01:57;;;;;;;28.42;14.40;;;9.30;99.90;;;;;;5048092;28;20056;-73
2022/03/30 01:04:23;;;;;;;30.90;13.70;;;9.30;99.90;;;;;;5025689;28;20045;-74
2022/03/30 01:06:48;;;;;;;27.50;12.98;;;9.20;99.90;;;;;;5062981;28;20111;-73
2022/03/30 01:09:14;;;;;;;27.80;13.38;;;9.30;99.90;;;;;;5028264;28;20227;-74
2022/03/30 01:11:56;;;;;;;27.73;14.93;;;9.40;99.90;;;;;;5047127;28;20033;-73
2022/03/30 01:14:52;;;;;;;28.77;13.20;;;9.50;99.90;;;;;;5064948;28;20112;-74
2022/03/30 01:17:24;;;;;;;24.38;13.52;;;9.40;99.90;;;;;;5075862;28;20159;-74
2022/03/30 01:20:22;;;;;;;25.00;13.38;;;10.30;99.90;;;;;;5047563;28;20425;-74
2022/03/30 01:23:03;;;;;;;25.02;13.40;;;9.50;99.90;;;;;;5035374;28;20045;-73
2022/03/30 01:26:27;;;;;;;31.30;12.90;;;10.30;99.90;;;;;;5044297;28;20051;-74
2022/03/30 01:29:00;;;;;;;26.40;13.27;;;8.30;99.90;;;;;;5052196;28;20284;-74
2022/03/30 01:34:11;;;;;;;32.20;14.25;;;9.60;99.90;;;;;;5062904;28;20139;-74
2022/03/30 01:36:37;;;;;;;27.08;12.52;;;9.80;99.90;;;;;;5046655;28;20040;-75
2022/03/30 01:39:13;;;;;;;23.40;13.43;;;9.60;99.90;;;;;;5045878;28;20040;-75
2022/03/30 01:41:42;;;;;;;28.27;12.60;;;9.50;99.90;;;;;;5051897;28;20036;-75
2022/03/30 01:44:10;;;;;;;23.48;12.48;;;9.80;99.90;;;;;;5046550;28;20036;-75
2022/03/30 01:46:39;;;;;;;24.55;12.13;;;9.80;99.90;;;;;;5045465;28;20028;-73
2022/03/30 01:49:05;;;;;;;21.83;12.20;;;8.60;99.90;;;;;;5063662;28;20031;-74
2022/03/30 01:51:30;;;;;;;27.90;12.73;;;9.80;99.90;;;;;;5069799;28;20330;-74
2022/03/30 01:53:56;;;;;;;23.38;10.93;;;9.80;99.90;;;;;;5063166;28;20037;-74
2022/03/30 01:56:22;;;;;;;27.05;12.13;;;9.70;99.90;;;;;;5031393;28;20025;-74
2022/03/30 01:58:49;;;;;;;24.90;12.05;;;9.70;99.90;;;;;;5043622;28;20082;-74
2022/03/30 02:01:14;;;;;;;19.25;11.32;;;9.90;99.90;;;;;;5047146;28;20047;-73
2022/03/30 02:03:40;;;;;;;19.85;11.10;;;9.80;99.90;;;;;;5078428;28;20028;-73
2022/03/30 02:06:06;;;;;;;22.08;10.80;;;9.70;99.90;;;;;;5070575;28;20045;-73
2022/03/30 02:08:32;;;;;;;23.17;11.95;;;9.90;99.90;;;;;;5060265;28;20037;-73
2022/03/30 02:10:58;;;;;;;22.75;12.63;;;9.70;99.90;;;;;;5060111;28;20335;-73
2022/03/30 02:13:24;;;;;;;21.70;11.73;;;9.80;99.90;;;;;;5054891;28;20036;-73
2022/03/30 02:15:49;;;;;;;26.08;12.65;;;9.80;99.90;;;;;;5072746;28;20040;-73
2022/03/30 02:18:16;;;;;;;25.50;11.07;;;9.80;99.90;;;;;;5063659;28;20204;-72
2022/03/30 02:20:41;;;;;;;25.00;12.73;;;9.80;99.90;;;;;;5036710;28;20048;-72
2022/03/30 02:23:07;;;;;;;29.30;13.30;;;9.90;99.90;;;;;;5050935;28;20036;-72
2022/03/30 02:25:34;;;;;;;21.77;12.52;;;9.80;99.90;;;;;;5074149;28;20032;-72
2022/03/30 02:27:59;;;;;;;26.55;11.80;;;9.80;99.90;;;;;;5057883;28;20063;-72
2022/03/30 02:30:25;;;;;;;23.48;13.13;;;10.00;99.90;;;;;;5041990;28;20052;-72
2022/03/30 02:32:51;;;;;;;26.30;13.77;;;10.10;99.90;;;;;;5057517;28;20373;-72
2022/03/30 02:35:18;;;;;;;25.73;13.18;;;10.20;99.90;;;;;;5077049;28;20040;-73
2022/03/30 02:37:44;;;;;;;32.22;13.27;;;10.40;99.90;;;;;;5076831;28;20048;-72
2022/03/30 02:40:10;;;;;;;22.60;12.32;;;10.10;99.90;;;;;;5067235;28;20227;-72
2022/03/30 02:42:36;;;;;;;18.88;10.52;;;10.00;99.90;;;;;;5068058;28;20069;-72
2022/03/30 02:45:01;;;;;;;21.35;11.20;;;10.30;99.90;;;;;;5048396;28;20049;-72
2022/03/30 02:50:12;;;;;;;20.08;9.82;;;10.50;99.90;;;;;;5062496;28;20138;-72
2022/03/30 02:52:38;;;;;;;15.20;8.77;;;10.40;99.90;;;;;;5046675;28;20040;-72
2022/03/30 02:55:04;;;;;;;12.50;7.90;;;10.60;99.90;;;;;;5068161;28;20039;-72
2022/03/30 02:57:30;;;;;;;12.52;6.80;;;10.40;99.90;;;;;;5048932;28;20147;-71
2022/03/30 02:59:55;;;;;;;9.07;5.57;;;10.30;99.90;;;;;;5030595;28;20041;-71
2022/03/30 03:02:21;;;;;;;5.20;2.60;;;10.50;99.90;;;;;;5080763;28;20366;-71
2022/03/30 03:04:47;;;;;;;3.65;2.10;;;10.90;99.90;;;;;;5068674;28;20037;-72
2022/03/30 03:07:14;;;;;;;2.58;1.60;;;11.00;99.90;;;;;;5053774;28;20044;-71
2022/03/30 03:09:40;;;;;;;2.63;1.83;;;10.00;99.90;;;;;;5062717;28;20040;-73
2022/03/30 03:12:06;;;;;;;3.13;1.55;;;10.90;99.90;;;;;;5066313;28;20043;-71
2022/03/30 03:14:32;;;;;;;5.25;1.70;;;11.00;99.90;;;;;;5048759;28;20307;-72
2022/03/30 03:16:57;;;;;;;2.47;1.60;;;10.70;99.90;;;;;;5058086;28;20188;-73
2022/03/30 03:19:23;;;;;;;5.68;1.30;;;10.60;99.90;;;;;;5071904;28;20056;-72
2022/03/30 03:21:49;;;;;;;1.70;1.00;;;10.60;99.90;;;;;;5055020;28;20058;-72
2022/03/30 03:24:15;;;;;;;4.80;1.40;;;11.10;99.90;;;;;;5049991;28;20083;-73
2022/03/30 03:26:40;;;;;;;2.13;1.20;;;10.90;99.90;;;;;;5076219;28;20231;-71
2022/03/30 03:29:06;;;;;;;3.20;1.25;;;10.70;99.90;;;;;;5060894;28;20035;-72
2022/03/30 03:31:32;;;;;;;2.67;1.20;;;11.00;99.90;;;;;;5061328;28;20354;-73
2022/03/30 03:33:58;;;;;;;2.35;1.10;;;11.20;99.90;;;;;;5065382;28;20033;-73
2022/03/30 03:36:23;;;;;;;2.67;0.98;;;11.10;99.90;;;;;;5080563;28;20048;-73
2022/03/30 03:38:49;;;;;;;2.10;0.80;;;10.90;99.90;;;;;;5080241;28;20048;-72
2022/03/30 03:41:15;;;;;;;1.65;0.70;;;10.70;99.90;;;;;;5082389;28;20048;-72
2022/03/30 03:43:41;;;;;;;2.05;0.90;;;10.80;99.90;;;;;;5065779;28;20046;-72
2022/03/30 03:46:07;;;;;;;2.40;0.80;;;11.10;99.90;;;;;;5049083;28;20048;-73
2022/03/30 03:48:33;;;;;;;3.63;1.00;;;10.80;99.90;;;;;;5077566;28;20058;-73
2022/03/30 03:50:58;;;;;;;2.92;0.90;;;10.80;99.90;;;;;;5070029;28;20342;-73
2022/03/30 03:53:24;;;;;;;1.65;0.70;;;10.80;99.90;;;;;;5065526;28;20226;-74
2022/03/30 03:55:50;;;;;;;2.17;0.70;;;10.90;99.90;;;;;;5065627;28;20032;-74
2022/03/30 03:58:16;;;;;;;0.90;0.70;;;11.00;99.90;;;;;;5072410;28;20051;-72
2022/03/30 04:00:41;;;;;;;0.90;0.55;;;10.80;99.90;;;;;;5055223;28;20040;-74
2022/03/30 04:03:07;;;;;;;0.60;0.50;;;11.10;99.90;;;;;;5016769;28;20033;-73
2022/03/30 04:05:33;;;;;;;3.88;0.80;;;10.70;99.90;;;;;;5061059;28;20056;-74
2022/03/30 04:07:59;;;;;;;1.88;0.93;;;10.90;99.90;;;;;;5074292;28;20040;-73
2022/03/30 04:10:24;;;;;;;1.75;0.60;;;11.00;99.90;;;;;;5080178;28;20090;-74
2022/03/30 04:12:50;;;;;;;0.45;0.45;;;10.90;99.90;;;;;;5081429;28;20058;-73
2022/03/30 04:15:16;;;;;;;0.80;0.63;;;10.60;99.90;;;;;;5081981;28;20044;-73
2022/03/30 04:17:46;;;;;;;2.55;0.55;;;10.80;99.90;;;;;;5078395;28;20044;-73
2022/03/30 04:20:14;;;;;;;1.30;0.60;;;10.70;99.90;;;;;;5062142;28;20059;-72
2022/03/30 04:22:40;;;;;;;0.93;0.57;;;10.80;99.90;;;;;;5063781;28;20040;-75
2022/03/30 04:25:07;;;;;;;1.95;0.70;;;10.30;99.90;;;;;;5048699;28;20342;-74
2022/03/30 04:27:32;;;;;;;1.92;0.60;;;10.30;99.90;;;;;;5053911;28;20044;-73
2022/03/30 04:29:59;;;;;;;0.85;0.60;;;10.20;99.90;;;;;;5056767;28;20052;-73
2022/03/30 04:32:25;;;;;;;1.20;0.90;;;10.20;99.90;;;;;;5061715;28;20052;-72
2022/03/30 04:34:50;;;;;;;1.95;0.80;;;10.50;99.90;;;;;;5052310;28;20323;-74
2022/03/30 04:37:16;;;;;;;2.05;0.70;;;10.40;99.90;;;;;;5028688;28;20103;-72
2022/03/30 04:39:42;;;;;;;0.82;0.80;;;10.00;99.90;;;;;;5038110;28;20033;-74
2022/03/30 04:42:08;;;;;;;1.95;0.80;;;10.20;99.90;;;;;;5054067;28;20052;-73
2022/03/30 04:44:34;;;;;;;2.15;0.77;;;10.20;99.90;;;;;;5046415;28;20048;-73
2022/03/30 04:46:59;;;;;;;1.83;0.90;;;9.70;99.90;;;;;;5064769;28;20775;-73
2022/03/30 04:49:25;;;;;;;2.67;1.00;;;10.10;99.90;;;;;;5070845;28;20036;-73
2022/03/30 04:51:51;;;;;;;0.90;0.70;;;10.00;99.90;;;;;;5079994;28;20043;-73
2022/03/30 04:54:18;;;;;;;1.40;1.30;;;9.90;99.90;;;;;;5067871;28;20036;-73
2022/03/30 04:56:45;;;;;;;1.88;0.98;;;10.00;99.90;;;;;;5064309;28;20041;-73
2022/03/30 04:59:11;;;;;;;1.33;1.10;;;9.80;99.90;;;;;;5030974;28;20082;-74
2022/03/30 05:01:37;;;;;;;3.03;1.30;;;9.50;99.90;;;;;;5029142;28;20040;-73
2022/03/30 05:04:06;;;;;;;1.85;0.90;;;9.80;99.90;;;;;;5045077;28;20192;-73
2022/03/30 05:06:31;;;;;;;2.20;0.90;;;9.60;99.90;;;;;;5081513;28;20043;-74
2022/03/30 05:08:57;;;;;;;4.53;1.40;;;9.50;99.90;;;;;;5064292;28;20095;-73
2022/03/30 05:11:23;;;;;;;1.63;1.00;;;9.70;99.90;;;;;;5041037;28;20108;-74
2022/03/30 05:13:48;;;;;;;3.17;0.80;;;9.30;99.90;;;;;;5030864;28;20048;-73
2022/03/30 05:16:15;;;;;;;3.35;1.10;;;9.40;99.90;;;;;;5046476;28;20391;-73
2022/03/30 05:18:41;;;;;;;1.15;1.00;;;9.60;99.90;;;;;;5064143;28;20074;-73
2022/03/30 05:21:07;;;;;;;2.30;1.00;;;9.40;99.90;;;;;;5062841;28;20040;-73
2022/03/30 05:23:36;;;;;;;1.60;1.10;;;9.30;99.90;;;;;;5071630;28;20044;-75
2022/03/30 05:26:05;;;;;;;3.00;1.15;;;9.20;99.90;;;;;;5064450;28;20045;-74
2022/03/30 05:28:31;;;;;;;1.77;1.15;;;8.90;99.90;;;;;;5069068;28;20037;-75
2022/03/30 05:30:57;;;;;;;1.20;1.10;;;9.30;99.90;;;;;;5057046;28;20094;-74
2022/03/30 05:33:23;;;;;;;1.98;1.20;;;9.20;99.90;;;;;;5060414;28;20041;-73
2022/03/30 05:35:50;;;;;;;1.70;1.38;;;9.60;99.90;;;;;;5034396;28;20044;-74
2022/03/30 05:38:16;;;;;;;2.08;1.65;;;9.60;99.90;;;;;;5047478;28;20242;-73
2022/03/30 05:40:42;;;;;;;1.88;1.48;;;9.30;99.90;;;;;;5078430;28;20056;-77
2022/03/30 05:43:08;;;;;;;2.08;1.30;;;9.20;99.90;;;;;;5063251;28;20196;-73
2022/03/30 05:45:34;;;;;;;2.03;1.60;;;9.50;99.90;;;;;;5077936;28;20303;-73
2022/03/30 05:48:00;;;;;;;2.00;1.80;;;9.50;99.90;;;;;;5073365;28;20055;-76
2022/03/30 05:50:27;;;;;;;1.38;1.17;;;9.80;99.90;;;;;;5063554;28;20044;-76
2022/03/30 05:52:52;;;;;;;3.22;1.60;;;9.80;99.90;;;;;;5059853;28;20240;-75
2022/03/30 05:55:18;;;;;;;2.38;1.80;;;9.90;99.90;;;;;;5011820;28;20065;-75
2022/03/30 05:57:44;;;;;;;1.95;1.33;;;9.90;99.90;;;;;;5056884;28;20103;-76
2022/03/30 06:00:11;;;;;;;2.22;1.13;;;9.60;99.90;;;;;;5054932;28;20090;-75
2022/03/30 06:02:37;;;;;;;2.20;1.40;;;9.60;99.90;;;;;;5063611;28;20319;-75
2022/03/30 06:05:04;;;;;;;2.45;1.30;;;10.00;99.90;;;;;;5052668;28;20322;-75
2022/03/30 06:07:30;;;;;;;2.00;1.40;;;9.70;99.90;;;;;;5078598;28;20266;-74
2022/03/30 06:09:56;;;;;;;1.38;1.17;;;9.80;99.90;;;;;;5067248;28;20033;-74
2022/03/30 06:12:24;;;;;;;2.25;1.13;;;9.70;99.90;;;;;;5075162;28;20071;-73
2022/03/30 06:14:51;;;;;;;2.67;1.67;;;9.70;99.90;;;;;;5043806;28;20037;-75
2022/03/30 06:17:18;;;;;;;1.58;1.10;;;10.00;99.90;;;;;;5059738;28;20119;-75
2022/03/30 06:19:50;;;;;;;1.90;1.33;;;9.70;99.90;;;;;;5077897;28;20036;-74
2022/03/30 06:22:16;;;;;;;2.70;1.88;;;10.00;99.90;;;;;;5061554;28;20041;-73
2022/03/30 06:24:45;;;;;;;2.55;1.58;;;9.80;99.90;;;;;;5052338;28;20048;-76
2022/03/30 06:27:11;;;;;;;3.67;1.58;;;9.80;99.90;;;;;;5060774;28;20040;-73
2022/03/30 06:29:38;;;;;;;2.38;1.52;;;10.10;99.90;;;;;;5041211;28;20330;-73
2022/03/30 06:32:06;;;;;;;4.43;1.60;;;10.00;99.90;;;;;;5063237;28;20098;-74
2022/03/30 06:34:32;;;;;;;1.92;1.10;;;10.20;99.90;;;;;;5078768;28;20040;-72
2022/03/30 06:36:58;;;;;;;3.05;1.88;;;10.20;99.90;;;;;;5081770;28;20249;-72
2022/03/30 06:39:24;;;;;;;2.83;1.25;;;10.30;99.90;;;;;;5057453;28;20087;-72
2022/03/30 06:41:50;;;;;;;4.80;1.55;;;10.20;99.90;;;;;;5065979;28;20099;-73
2022/03/30 06:44:17;;;;;;;3.60;1.40;;;10.30;99.90;;;;;;5051978;28;20045;-74
2022/03/30 06:46:43;;;;;;;3.80;1.55;;;10.10;99.90;;;;;;5065511;28;20039;-74
2022/03/30 06:49:12;;;;;;;5.15;1.50;;;10.60;99.90;;;;;;5066311;28;20047;-71
2022/03/30 06:51:38;;;;;;;3.10;1.55;;;10.70;99.90;;;;;;5083031;28;20043;-72
2022/03/30 06:54:04;;;;;;;3.83;1.70;;;10.30;99.90;;;;;;5082050;28;20041;-74
2022/03/30 06:56:31;;;;;;;4.80;1.92;;;10.50;99.90;;;;;;5029525;28;20112;-77
2022/03/30 06:58:57;;;;;;;4.30;1.60;;;10.60;99.90;;;;;;5062665;28;20163;-74
2022/03/30 07:01:22;;;;;;;4.40;2.13;;;10.60;99.90;;;;;;5063220;28;20041;-75
2022/03/30 07:03:50;;;;;;;2.45;1.42;;;10.50;99.90;;;;;;5061846;28;20041;-72
2022/03/30 07:06:16;;;;;;;3.30;1.73;;;10.70;99.90;;;;;;5065871;28;20116;-74
2022/03/30 07:11:27;;;;;;;3.13;1.50;;;10.70;99.90;;;;;;5070618;28;20068;-74
2022/03/30 07:13:56;;;;;;;3.78;1.67;;;10.70;99.90;;;;;;5053356;28;20045;-74
2022/03/30 07:16:22;;;;;;;2.15;1.52;;;10.50;99.90;;;;;;5028886;28;20115;-74
2022/03/30 07:18:49;;;;;;;2.38;1.42;;;10.70;99.90;;;;;;5076145;28;20320;-76
2022/03/30 07:21:15;;;;;;;3.15;1.70;;;10.30;99.90;;;;;;5076368;28;20096;-75
2022/03/30 07:23:40;;;;;;;3.83;1.48;;;10.60;99.90;;;;;;5020125;28;20053;-73
2022/03/30 07:26:06;;;;;;;3.40;1.50;;;10.60;99.90;;;;;;5058359;28;20231;-75
2022/03/30 07:28:32;;;;;;;3.58;1.65;;;10.60;99.90;;;;;;5063345;28;20098;-75
2022/03/30 07:30:58;;;;;;;4.00;1.40;;;10.40;99.90;;;;;;5052574;28;20056;-74
2022/03/30 07:33:24;;;;;;;3.75;1.70;;;10.50;99.90;;;;;;5057894;28;20029;-72
2022/03/30 07:35:50;;;;;;;3.85;1.67;;;10.20;99.90;;;;;;5049177;28;20330;-72
2022/03/30 07:38:18;;;;;;;2.50;1.20;;;10.30;99.90;;;;;;5062810;28;20572;-73
2022/03/30 07:40:45;;;;;;;3.10;1.30;;;10.20;99.90;;;;;;5064021;28;20044;-71
2022/03/30 07:43:12;;;;;;;3.58;1.38;;;10.00;99.90;;;;;;5053649;28;20112;-73
2022/03/30 07:45:38;;;;;;;3.30;1.00;;;10.00;99.90;;;;;;5071574;28;20139;-72
2022/03/30 07:48:05;;;;;;;8.20;1.40;;;9.80;99.90;;;;;;5078964;28;20063;-73
2022/03/30 07:50:31;;;;;;;3.38;1.38;;;9.50;99.90;;;;;;5047521;28;20079;-73
2022/03/30 07:52:57;;;;;;;3.65;1.20;;;9.60;99.90;;;;;;5054592;28;20043;-72
2022/03/30 07:55:24;;;;;;;2.65;1.10;;;9.60;99.90;;;;;;5068331;28;20098;-71
2022/03/30 07:57:50;;;;;;;4.75;1.42;;;9.20;99.90;;;;;;5063531;28;20043;-72
2022/03/30 08:00:17;;;;;;;5.45;1.33;;;9.10;99.90;;;;;;5062758;28;20048;-72
2022/03/30 08:02:45;;;;;;;3.60;1.15;;;8.80;99.90;;;;;;5076956;28;20044;-72
2022/03/30 08:05:13;;;;;;;6.85;1.40;;;8.60;99.90;;;;;;5057786;28;20041;-72
2022/03/30 08:07:49;;;;;;;3.42;2.05;;;8.60;99.90;;;;;;5065300;28;20037;-72
2022/03/30 08:10:15;;;;;;;2.67;1.35;;;8.20;99.90;;;;;;5063423;28;20047;-72
2022/03/30 08:12:41;;;;;;;4.45;1.50;;;8.40;99.90;;;;;;5046341;28;20055;-71
2022/03/30 08:15:08;;;;;;;2.67;1.50;;;8.40;99.90;;;;;;5063589;28;20071;-72
2022/03/30 08:17:35;;;;;;;4.45;2.08;;;8.40;99.90;;;;;;5037259;28;20045;-71
2022/03/30 08:20:01;;;;;;;5.80;1.90;;;8.30;99.90;;;;;;5055910;28;20076;-72
2022/03/30 08:22:28;;;;;;;5.43;1.88;;;8.00;99.90;;;;;;5067403;28;20048;-71
2022/03/30 08:24:55;;;;;;;3.45;1.33;;;8.40;99.90;;;;;;5051322;28;20047;-71
2022/03/30 08:27:22;;;;;;;4.45;1.10;;;8.20;99.90;;;;;;5055881;28;20350;-71
2022/03/30 08:29:49;;;;;;;9.57;2.53;;;8.20;99.90;;;;;;5055796;28;20112;-71
2022/03/30 08:32:16;;;;;;;3.95;1.35;;;8.60;99.90;;;;;;5072313;28;20112;-71
2022/03/30 08:34:43;;;;;;;1.75;1.20;;;8.30;99.90;;;;;;5066261;28;20118;-72
2022/03/30 08:37:10;;;;;;;6.72;1.30;;;8.50;99.90;;;;;;5058850;28;20044;-72
2022/03/30 08:39:36;;;;;;;1.90;1.13;;;8.60;99.90;;;;;;5068146;28;20044;-73
2022/03/30 08:42:07;;;;;;;2.45;1.40;;;8.60;99.90;;;;;;5073430;28;20119;-72
2022/03/30 08:44:34;;;;;;;3.13;1.02;;;8.50;99.90;;;;;;5037453;28;20102;-73
2022/03/30 08:47:01;;;;;;;2.97;1.00;;;8.40;99.90;;;;;;5037233;28;20053;-73
2022/03/30 08:49:30;;;;;;;2.13;1.00;;;8.20;99.90;;;;;;5032465;28;20048;-73
2022/03/30 08:51:58;;;;;;;5.03;1.40;;;8.00;99.90;;;;;;5022604;28;20033;-74
2022/03/30 08:54:23;;;;;;;5.85;1.30;;;8.00;99.90;;;;;;5028636;28;20397;-73
2022/03/30 08:56:49;;;;;;;3.42;1.17;;;7.90;99.90;;;;;;5037122;28;20032;-73
2022/03/30 08:59:20;;;;;;;6.22;1.48;;;8.10;99.90;;;;;;5054998;28;21086;-74
2022/03/30 09:01:47;;;;;;;3.50;0.98;;;8.00;99.90;;;;;;5069257;28;20103;-72
2022/03/30 09:04:14;;;;;;;4.13;1.20;;;8.30;99.90;;;;;;5057926;28;20357;-74
2022/03/30 09:06:50;;;;;;;3.72;2.20;;;8.50;99.90;;;;;;5069342;28;20345;-74
2022/03/30 09:09:30;;;;;;;3.13;1.95;;;7.70;99.90;;;;;;5031292;28;20204;-74
2022/03/30 09:11:58;;;;;;;5.00;1.48;;;7.70;99.90;;;;;;5067633;28;20106;-73
2022/03/30 09:14:29;;;;;;;3.92;1.52;;;7.70;99.90;;;;;;5057100;28;20111;-74
2022/03/30 09:16:58;;;;;;;3.22;1.10;;;7.60;99.90;;;;;;5068287;28;20052;-74
2022/03/30 09:19:25;;;;;;;3.05;1.40;;;7.60;99.90;;;;;;5064277;28;20093;-73
2022/03/30 09:21:57;;;;;;;1.67;1.17;;;7.50;99.90;;;;;;5066378;28;20381;-73
2022/03/30 09:24:29;;;;;;;2.95;1.40;;;7.00;99.90;;;;;;5059530;28;20119;-73
2022/03/30 09:26:57;;;;;;;2.60;1.45;;;7.30;99.90;;;;;;5063049;28;20040;-73
2022/03/30 09:29:25;;;;;;;2.72;1.27;;;7.10;99.90;;;;;;5040942;28;20086;-73
2022/03/30 09:31:54;;;;;;;4.82;1.70;;;7.30;99.90;;;;;;5055449;28;20242;-73
2022/03/30 09:34:21;;;;;;;5.13;1.13;;;7.40;99.90;;;;;;5045798;28;20052;-74
2022/03/30 09:36:50;;;;;;;3.72;1.17;;;7.70;99.90;;;;;;5045314;28;20499;-73
2022/03/30 09:39:34;;;;;;;3.63;1.50;;;7.90;99.90;;;;;;5067908;28;20033;-73
2022/03/30 09:42:10;;;;;;;6.13;1.90;;;7.90;99.90;;;;;;5048417;28;20412;-73
2022/03/30 09:44:53;;;;;;;7.63;2.20;;;8.40;99.90;;;;;;5053133;28;20330;-74
2022/03/30 09:47:21;;;;;;;3.80;1.33;;;9.00;99.90;;;;;;5041457;28;20103;-74
2022/03/30 09:49:52;;;;;;;5.13;1.35;;;8.00;99.90;;;;;;5055231;28;20052;-74
2022/03/30 09:52:24;;;;;;;1.67;1.13;;;7.90;99.90;;;;;;5056662;28;20119;-72
2022/03/30 09:54:53;;;;;;;3.17;1.55;;;8.10;99.90;;;;;;5072294;28;20048;-72
2022/03/30 09:57:25;;;;;;;2.10;1.20;;;8.10;99.90;;;;;;5048332;28;20044;-73
2022/03/30 10:00:15;;;;;;;4.88;1.52;;;8.30;99.90;;;;;;5041045;28;20048;-74
2022/03/30 10:02:44;;;;;;;3.78;1.67;;;8.20;99.90;;;;;;5061880;28;20048;-74
2022/03/30 10:05:12;;;;;;;2.97;1.30;;;8.10;99.90;;;;;;5080879;28;20423;-74
2022/03/30 10:07:41;;;;;;;3.60;1.92;;;7.80;99.90;;;;;;5048243;28;20044;-74
2022/03/30 10:10:14;;;;;;;4.03;1.15;;;7.60;99.90;;;;;;5048418;28;20122;-73
2022/03/30 10:12:40;;;;;;;2.97;1.40;;;7.60;99.90;;;;;;5056891;28;20087;-74
2022/03/30 10:15:07;;;;;;;3.30;1.15;;;7.70;99.90;;;;;;5057041;28;20265;-73
2022/03/30 10:17:54;;;;;;;3.85;1.50;;;7.70;99.90;;;;;;5060649;28;20048;-73
2022/03/30 10:20:21;;;;;;;5.07;1.40;;;7.90;99.90;;;;;;5047109;28;20051;-73
2022/03/30 10:22:52;;;;;;;5.35;1.42;;;8.70;99.90;;;;;;5074014;28;20248;-73
2022/03/30 10:25:33;;;;;;;4.07;1.30;;;7.90;99.90;;;;;;5067477;28;20043;-73
2022/03/30 10:28:27;;;;;;;3.35;1.30;;;7.70;99.90;;;;;;5075875;28;20056;-75
2022/03/30 10:31:30;;;;;;;5.93;1.38;;;7.30;99.90;;;;;;5070934;28;20127;-75
2022/03/30 10:34:28;;;;;;;2.63;1.23;;;6.50;99.90;;;;;;5021903;28;20514;-75
2022/03/30 10:37:09;;;;;;;4.93;1.42;;;7.20;99.90;;;;;;5051577;28;20057;-74
2022/03/30 10:39:52;;;;;;;3.53;1.20;;;7.00;99.90;;;;;;5053017;28;20292;-73
2022/03/30 10:42:24;;;;;;;3.33;1.17;;;6.70;99.90;;;;;;5061072;28;20080;-74
2022/03/30 10:45:01;;;;;;;3.45;1.30;;;7.20;99.90;;;;;;5055242;28;20110;-74
2022/03/30 10:47:38;;;;;;;1.63;0.90;;;7.20;99.90;;;;;;5067522;28;20032;-73
2022/03/30 10:51:00;;;;;;;8.18;2.00;;;7.00;99.90;;;;;;5079177;28;20295;-74
2022/03/30 10:54:01;;;;;;;2.03;0.90;;;7.90;99.90;;;;;;5056299;28;20103;-74
2022/03/30 10:56:30;;;;;;;2.35;1.40;;;7.30;99.90;;;;;;5041980;28;20375;-74
2022/03/30 10:59:02;;;;;;;5.03;1.42;;;7.30;99.90;;;;;;5059786;28;20075;-74
2022/03/30 11:01:50;;;;;;;5.75;1.38;;;7.50;99.90;;;;;;5078529;28;20044;-74
2022/03/30 11:04:34;;;;;;;4.30;0.82;;;7.60;99.90;;;;;;5067507;28;20112;-75
2022/03/30 11:07:01;;;;;;;2.55;1.00;;;8.70;99.90;;;;;;5046976;28;20281;-74
2022/03/30 11:10:11;;;;;;;1.80;0.80;;;8.10;99.90;;;;;;5062411;28;20060;-73
2022/03/30 11:13:05;;;;;;;2.95;0.85;;;7.90;99.90;;;;;;5061047;28;20047;-74
2022/03/30 11:16:07;;;;;;;2.47;0.82;;;7.60;99.90;;;;;;5061541;28;20047;-74
2022/03/30 11:19:02;;;;;;;3.65;1.25;;;8.00;99.90;;;;;;5059396;28;20032;-74
2022/03/30 11:21:31;;;;;;;1.67;0.70;;;8.10;99.90;;;;;;5051529;28;20292;-74
2022/03/30 11:24:41;;;;;;;2.28;0.93;;;8.50;99.90;;;;;;5046325;28;20115;-73
2022/03/30 11:27:19;;;;;;;2.83;0.90;;;7.80;99.90;;;;;;4983213;28;20045;-74
2022/03/30 11:29:59;;;;;;;3.60;1.00;;;7.80;99.90;;;;;;5015666;28;20092;-74
2022/03/30 11:32:28;;;;;;;2.58;0.90;;;7.60;99.90;;;;;;4978242;28;20046;-73
2022/03/30 11:34:59;;;;;;;3.22;0.90;;;7.50;99.90;;;;;;4999373;28;20061;-74
2022/03/30 11:37:32;;;;;;;1.88;1.05;;;7.40;99.90;;;;;;5055932;28;20251;-74
2022/03/30 11:40:08;;;;;;;3.78;1.00;;;7.70;99.90;;;;;;5057961;28;20045;-74
2022/03/30 11:42:53;;;;;;;2.92;1.33;;;7.70;99.90;;;;;;5060440;28;20068;-74
2022/03/30 11:45:26;;;;;;;1.90;0.80;;;7.90;99.90;;;;;;5059321;28;20125;-73
2022/03/30 11:48:29;;;;;;;4.90;1.10;;;7.90;99.90;;;;;;5069347;28;20294;-73
2022/03/30 11:52:08;;;;;;;;;;;;;;;;;;;;;
2022/03/30 11:54:49;;;;;;;3.35;1.08;;;8.20;99.90;;;;;;4996527;28;20045;-73
2022/03/30 11:57:20;;;;;;;3.47;1.20;;;7.80;99.90;;;;;;5008189;28;20040;-73
2022/03/30 12:00:02;;;;;;;2.63;1.38;;;8.60;99.90;;;;;;5026504;28;20399;-74
2022/03/30 12:02:28;;;;;;;2.42;0.90;;;8.50;99.90;;;;;;5064590;28;20044;-73
2022/03/30 12:04:56;;;;;;;2.92;1.33;;;8.50;99.90;;;;;;5041672;28;20063;-72
2022/03/30 12:07:22;;;;;;;2.67;0.80;;;8.70;99.90;;;;;;5040668;28;20169;-74
2022/03/30 12:09:52;;;;;;;1.90;1.08;;;8.60;99.90;;;;;;5058636;28;20120;-73
2022/03/30 12:12:35;;;;;;;3.53;1.00;;;8.20;99.90;;;;;;5040676;28;20048;-73
2022/03/30 12:15:16;;;;;;;2.17;0.80;;;7.90;99.90;;;;;;5072701;28;20106;-74
2022/03/30 12:17:49;;;;;;;5.22;1.30;;;8.20;99.90;;;;;;5058374;28;20107;-74
2022/03/30 12:20:31;;;;;;;2.75;0.93;;;8.20;99.90;;;;;;5055697;28;20080;-74
2022/03/30 12:23:02;;;;;;;3.00;1.10;;;8.00;99.90;;;;;;5057655;28;20413;-73
2022/03/30 12:25:39;;;;;;;2.35;0.90;;;8.20;99.90;;;;;;5072302;28;20048;-74
2022/03/30 12:28:06;;;;;;;3.30;0.90;;;8.30;99.90;;;;;;5058183;28;20067;-74
2022/03/30 12:30:34;;;;;;;5.22;1.35;;;8.40;99.90;;;;;;5073824;28;20048;-75
2022/03/30 12:33:06;;;;;;;2.88;1.00;;;8.50;99.90;;;;;;5074318;28;20049;-73
2022/03/30 12:35:38;;;;;;;3.55;1.02;;;8.30;99.90;;;;;;5058431;28;20071;-73
2022/03/30 12:38:10;;;;;;;3.53;0.80;;;8.10;99.90;;;;;;5058438;28;20345;-75
2022/03/30 12:40:58;;;;;;;1.92;0.88;;;8.20;99.90;;;;;;5046744;28;20049;-74
2022/03/30 12:46:55;;;;;;;3.45;0.95;;;8.00;99.90;;;;;;5062205;28;20059;-72
2022/03/30 12:53:40;;;;;;;2.33;1.00;;;7.20;99.90;;;;;;4957487;28;20223;-74
2022/03/30 12:56:27;;;;;;;2.97;0.80;;;7.80;99.90;;;;;;4992217;28;20303;-74
2022/03/30 12:59:24;;;;;;;2.78;0.80;;;7.80;99.90;;;;;;4986521;28;20033;-74
2022/03/30 13:01:58;;;;;;;3.67;0.95;;;9.10;99.90;;;;;;5002314;28;20041;-74
2022/03/30 13:04:28;;;;;;;1.95;0.80;;;8.20;99.90;;;;;;5005956;28;20108;-74
2022/03/30 13:07:13;;;;;;;1.40;1.00;;;8.30;99.90;;;;;;4989406;28;20049;-73
2022/03/30 13:10:01;;;;;;;2.15;0.70;;;7.60;99.90;;;;;;4990172;28;20057;-73
2022/03/30 13:12:43;;;;;;;2.10;0.80;;;7.80;99.90;;;;;;5023717;28;20219;-73
2022/03/30 13:15:11;;;;;;;0.95;0.60;;;8.40;99.90;;;;;;5006021;28;20041;-73
2022/03/30 13:17:54;;;;;;;4.15;0.70;;;8.80;99.90;;;;;;5006927;28;20108;-73
2022/03/30 13:20:20;;;;;;;2.45;0.80;;;9.20;99.90;;;;;;5048803;28;20040;-73
2022/03/30 13:22:59;;;;;;;2.75;0.70;;;8.70;99.90;;;;;;5064817;28;20368;-73